Etusivu
METAR-TAF:

METAR-TAF

Lentoasemat :

Stevens Point Municipal Airport

Stevens Point, Wisconsin, Yhdysvallat

Leveyspiiri: 44-32-42N, Pituuspiiri: 089-31-49W, korkeus merenpinnasta: 338 m

Tämänhetkinen sää

Tämä raportti tehtiin 37 minuuttia sitten, kello 10.15 UTC
Tuuli 7 kn idästä
Lämpötila -8°C
Kosteus 44%
Ilmanpaine 1019 hPa
Näkyvyys: 16.1 km
Hajanaisia pilviä 12000 ft:n korkeudessa

METAR: KSTE 171015Z AUTO 08007KT 10SM SCT120 M08/M18 A3008 RMK AO2 T10851176

Aika: 04:52 (10:52 UTC)


TAF: puuttuu

Säähavainnot ja -ennusteet yli 4000 lentoasemalta (METAR- ja TAF-raportit).

Käytössä olevat sääasemat on merkitty karttaan keltaisilla ja punaisilla pisteillä.

Aseta hiiri pisteen päälle nähdäksesi sääaseman nimen.

Klikkaa sitten nähdäksesi säähavainnot ja -ennusteet.

Kartan vaihtaminen: klikkaa mustalla rastilla varustettuja vihreitä pisteitä, niin voit zoomata sisään; viivalla varustettua vihreää pistettä, niin voit zoomata ulos tai vihreitä nuolia, niin pääset viereisille kartoille.


METAR-TAF: